createdAt,value
2022-08-02T00:01:25.959Z,21.80
2022-08-02T00:06:28.787Z,21.70
2022-08-02T00:11:32.072Z,21.60
2022-08-02T00:16:38.185Z,21.50
2022-08-02T00:21:42.134Z,21.40
2022-08-02T00:26:45.753Z,21.30
2022-08-02T00:31:48.502Z,21.20
2022-08-02T00:36:51.778Z,21.10
2022-08-02T00:41:54.705Z,21.10
2022-08-02T00:46:57.551Z,21.10
2022-08-02T00:52:01.190Z,20.90
2022-08-02T00:57:05.037Z,20.80
2022-08-02T01:02:09.767Z,20.70
2022-08-02T01:07:14.567Z,20.60
2022-08-02T01:12:17.788Z,20.50
2022-08-02T01:17:50.647Z,20.40
2022-08-02T01:23:18.539Z,20.50
2022-08-02T01:28:50.907Z,20.50
2022-08-02T01:34:19.319Z,20.40
2022-08-02T01:39:31.957Z,20.40
2022-08-02T01:44:40.088Z,20.30
2022-08-02T01:49:48.173Z,20.20
2022-08-02T01:55:07.261Z,20.20
2022-08-02T02:00:14.808Z,20.10
2022-08-02T02:05:23.019Z,20.00
2022-08-02T02:10:30.346Z,19.90
2022-08-02T02:15:35.041Z,19.80
2022-08-02T02:20:38.704Z,19.80
2022-08-02T02:25:46.825Z,19.60
2022-08-02T02:30:55.487Z,19.60
2022-08-02T02:35:59.554Z,19.50
2022-08-02T02:41:06.797Z,19.60
2022-08-02T02:46:11.392Z,19.60
2022-08-02T02:51:15.107Z,19.60
2022-08-02T02:56:18.840Z,19.50
2022-08-02T03:01:55.473Z,19.50
2022-08-02T03:06:52.382Z,19.50
2022-08-02T03:11:57.042Z,19.50
2022-08-02T03:16:59.870Z,19.50
2022-08-02T03:22:02.744Z,19.60
2022-08-02T03:27:05.934Z,19.50
2022-08-02T03:32:09.354Z,19.60
2022-08-02T03:37:12.617Z,19.60
2022-08-02T03:42:16.172Z,19.50
2022-08-02T03:47:19.891Z,19.40
2022-08-02T03:52:25.433Z,19.50
2022-08-02T03:57:28.605Z,19.50
2022-08-02T04:02:31.567Z,19.50
2022-08-02T04:08:02.606Z,19.60
2022-08-02T04:12:58.113Z,19.70
2022-08-02T04:18:04.124Z,19.80
2022-08-02T04:23:14.583Z,19.90
2022-08-02T04:28:19.424Z,19.90
2022-08-02T04:33:32.150Z,20.00
2022-08-02T04:38:35.078Z,20.10
2022-08-02T04:43:37.892Z,20.10
2022-08-02T04:48:40.831Z,20.20
2022-08-02T04:53:43.635Z,20.40
2022-08-02T04:58:46.424Z,20.60
2022-08-02T05:03:49.372Z,20.70
2022-08-02T05:08:52.615Z,20.90
2022-08-02T05:13:58.544Z,21.10
2022-08-02T05:19:03.158Z,21.20
2022-08-02T05:24:07.064Z,21.40
2022-08-02T05:29:09.893Z,21.50
2022-08-02T05:34:13.001Z,21.70
2022-08-02T05:39:18.950Z,21.90
2022-08-02T05:44:22.505Z,22.20
2022-08-02T05:49:25.402Z,22.40
2022-08-02T05:54:51.040Z,22.60
2022-08-02T06:00:10.937Z,22.90
2022-08-02T06:05:21.550Z,23.10
2022-08-02T06:10:26.943Z,23.30
2022-08-02T06:15:30.306Z,23.50
2022-08-02T06:20:38.340Z,23.70
2022-08-02T06:25:47.965Z,23.90
2022-08-02T06:30:54.685Z,24.10
2022-08-02T06:36:22.152Z,24.30
2022-08-02T06:41:27.754Z,24.50
2022-08-02T06:46:57.399Z,24.60
2022-08-02T06:51:53.884Z,24.80
2022-08-02T06:56:56.911Z,24.90
2022-08-02T07:02:00.014Z,25.00
2022-08-02T07:07:02.940Z,25.20
2022-08-02T07:12:06.608Z,25.30
2022-08-02T07:17:09.469Z,25.50
2022-08-02T07:22:13.210Z,25.60
2022-08-02T07:27:16.270Z,25.70
2022-08-02T07:32:23.627Z,25.80
2022-08-02T07:37:52.806Z,26.00
2022-08-02T07:43:02.392Z,26.20
2022-08-02T07:48:08.520Z,26.20
2022-08-02T07:53:11.324Z,26.40
2022-08-02T07:58:14.206Z,26.60
2022-08-02T08:03:16.929Z,26.80
2022-08-02T08:08:19.752Z,26.90
2022-08-02T08:13:22.707Z,27.00
2022-08-02T08:18:25.541Z,27.10
2022-08-02T08:23:28.585Z,27.40
2022-08-02T08:28:31.446Z,27.50
2022-08-02T08:33:34.924Z,27.70
2022-08-02T08:38:37.834Z,27.80
2022-08-02T08:43:40.680Z,28.00
2022-08-02T08:48:50.095Z,28.20
2022-08-02T08:53:57.025Z,28.40
2022-08-02T08:59:00.721Z,28.50
2022-08-02T09:04:03.560Z,28.60
2022-08-02T09:09:06.310Z,28.70
2022-08-02T09:14:09.291Z,28.80
2022-08-02T09:19:26.970Z,28.90
2022-08-02T09:24:40.624Z,28.90
2022-08-02T09:35:12.393Z,29.30
2022-08-02T09:40:15.352Z,29.50
2022-08-02T09:45:18.315Z,29.70
2022-08-02T09:50:21.092Z,29.90
2022-08-02T09:55:26.209Z,30.00
2022-08-02T10:00:50.883Z,30.10
2022-08-02T10:06:03.026Z,30.20
2022-08-02T10:11:06.288Z,30.20
2022-08-02T10:16:10.226Z,30.30
2022-08-02T10:21:29.660Z,30.50
2022-08-02T10:26:33.309Z,30.60
2022-08-02T10:31:55.470Z,30.80
2022-08-02T10:37:03.622Z,31.10
2022-08-02T10:42:06.621Z,31.30
2022-08-02T10:47:17.225Z,31.30
2022-08-02T10:52:31.114Z,31.40
2022-08-02T10:57:35.486Z,31.40
2022-08-02T11:02:42.573Z,31.30
2022-08-02T11:07:50.541Z,31.50
2022-08-02T11:13:17.630Z,31.70
2022-08-02T11:18:22.343Z,31.80
2022-08-02T11:23:45.191Z,31.70
2022-08-02T11:28:51.856Z,31.40
2022-08-02T11:33:54.737Z,31.20
2022-08-02T11:39:15.820Z,31.30
2022-08-02T11:44:20.008Z,31.20
2022-08-02T11:49:26.755Z,31.10
2022-08-02T11:54:35.418Z,31.30
2022-08-02T11:59:39.546Z,31.40
2022-08-02T12:04:42.779Z,31.70
2022-08-02T12:09:46.906Z,32.00
2022-08-02T12:14:49.781Z,32.40
2022-08-02T12:19:52.692Z,32.70
2022-08-02T12:24:58.577Z,33.20
2022-08-02T12:30:09.360Z,33.40
2022-08-02T12:35:25.932Z,32.90
2022-08-02T12:40:33.396Z,32.20
2022-08-02T12:45:56.652Z,31.80
2022-08-02T12:50:59.574Z,32.00
2022-08-02T12:56:03.870Z,32.00
2022-08-02T13:01:06.947Z,32.20
2022-08-02T13:06:40.955Z,32.30
2022-08-02T13:11:32.641Z,32.50
2022-08-02T13:16:35.466Z,32.90
2022-08-02T13:21:41.774Z,33.40
2022-08-02T13:27:04.470Z,33.50
2022-08-02T13:32:11.889Z,33.70
2022-08-02T13:37:15.212Z,34.00
2022-08-02T13:42:18.452Z,34.30
2022-08-02T13:47:26.587Z,34.50
2022-08-02T13:52:39.847Z,34.60
2022-08-02T13:57:42.782Z,34.70
2022-08-02T14:02:56.308Z,34.60
2022-08-02T14:08:01.431Z,34.50
2022-08-02T14:13:04.515Z,34.40
2022-08-02T14:18:07.273Z,34.40
2022-08-02T14:23:10.415Z,34.50
2022-08-02T14:28:13.401Z,34.70
2022-08-02T14:33:16.307Z,34.80
2022-08-02T14:38:20.034Z,35.00
2022-08-02T14:43:41.804Z,34.90
2022-08-02T14:48:44.854Z,34.80
2022-08-02T14:53:49.688Z,34.70
2022-08-02T14:59:06.422Z,34.80
2022-08-02T15:04:09.303Z,34.70
2022-08-02T15:09:13.588Z,34.60
2022-08-02T15:14:25.828Z,34.60
2022-08-02T15:19:56.480Z,34.50
2022-08-02T15:24:54.376Z,34.60
2022-08-02T15:30:00.591Z,34.70
2022-08-02T15:35:04.414Z,34.60
2022-08-02T15:40:08.180Z,34.30
2022-08-02T15:45:14.765Z,34.30
2022-08-02T15:50:19.075Z,34.10
2022-08-02T15:55:22.948Z,34.10
2022-08-02T16:00:25.801Z,34.10
2022-08-02T16:05:28.853Z,34.10
2022-08-02T16:10:31.851Z,34.10
2022-08-02T16:15:34.821Z,33.80
2022-08-02T16:20:37.702Z,33.70
2022-08-02T16:25:42.073Z,33.40
2022-08-02T16:30:59.263Z,33.40
2022-08-02T16:36:07.984Z,33.20
2022-08-02T16:41:10.996Z,33.10
2022-08-02T16:46:15.596Z,33.00
2022-08-02T16:51:19.386Z,32.90
2022-08-02T16:56:22.885Z,32.80
2022-08-02T17:01:27.802Z,32.60
2022-08-02T17:06:51.932Z,32.30
2022-08-02T17:11:55.001Z,31.80
2022-08-02T17:16:57.945Z,31.30
2022-08-02T17:22:00.759Z,30.90
2022-08-02T17:27:04.257Z,30.60
2022-08-02T17:32:10.781Z,30.40
2022-08-02T17:37:14.747Z,30.10
2022-08-02T17:42:20.020Z,29.90
2022-08-02T17:47:30.937Z,29.70
2022-08-02T17:57:59.197Z,29.40
2022-08-02T18:03:05.937Z,29.20
2022-08-02T18:08:09.572Z,29.00
2022-08-02T18:13:12.894Z,28.70
2022-08-02T18:18:19.188Z,28.50
2022-08-02T18:23:32.443Z,28.20
2022-08-02T18:28:40.757Z,27.90
2022-08-02T18:34:00.164Z,27.60
2022-08-02T18:39:07.894Z,27.40
2022-08-02T18:44:15.755Z,27.00
2022-08-02T18:49:19.492Z,26.80
2022-08-02T18:54:26.694Z,26.60
2022-08-02T18:59:36.876Z,26.50
2022-08-02T19:04:43.717Z,26.50
2022-08-02T19:09:49.953Z,26.40
2022-08-02T19:14:52.825Z,26.20
2022-08-02T19:19:56.212Z,26.10
2022-08-02T19:25:00.100Z,26.00
2022-08-02T19:30:08.791Z,26.00
2022-08-02T19:35:19.556Z,25.90
2022-08-02T19:40:33.267Z,25.90
2022-08-02T19:45:50.961Z,26.00
2022-08-02T19:50:59.196Z,26.00
2022-08-02T19:56:04.568Z,26.10
2022-08-02T20:01:09.552Z,26.10
2022-08-02T20:06:29.784Z,26.20
2022-08-02T20:11:35.099Z,26.10
2022-08-02T20:16:38.386Z,26.10
2022-08-02T20:27:08.089Z,26.00
2022-08-02T20:32:11.924Z,25.90
2022-08-02T20:38:01.317Z,25.80
2022-08-02T20:42:38.291Z,25.60
2022-08-02T20:47:42.572Z,25.40
2022-08-02T20:52:49.288Z,25.20
2022-08-02T20:58:00.917Z,24.90
2022-08-02T21:03:05.325Z,24.80
2022-08-02T21:08:13.881Z,24.60
2022-08-02T21:13:22.655Z,24.40
2022-08-02T21:18:34.635Z,24.20
2022-08-02T21:23:44.991Z,24.10
2022-08-02T21:28:52.003Z,23.90
2022-08-02T21:33:59.447Z,23.90
2022-08-02T21:39:09.278Z,23.90
2022-08-02T21:44:12.832Z,23.80
2022-08-02T21:49:16.717Z,23.80
2022-08-02T21:54:21.527Z,23.70
2022-08-02T21:59:26.331Z,23.50
2022-08-02T22:04:30.029Z,23.50
2022-08-02T22:09:43.757Z,23.30
2022-08-02T22:14:53.854Z,23.20
2022-08-02T22:19:57.320Z,23.10
2022-08-02T22:25:00.467Z,23.10
2022-08-02T22:30:07.840Z,23.00
2022-08-02T22:35:13.297Z,22.90
2022-08-02T22:40:16.428Z,22.80
2022-08-02T22:45:20.782Z,22.80
2022-08-02T22:50:23.688Z,22.70
2022-08-02T22:55:32.232Z,22.70
2022-08-02T22:58:49.438Z,29.50
2022-08-02T22:58:55.202Z,26.10
2022-08-02T23:00:35.438Z,22.60
2022-08-02T23:05:39.044Z,22.50
2022-08-02T23:10:42.333Z,22.30
2022-08-02T23:16:04.152Z,22.30
2022-08-02T23:21:07.035Z,22.20
2022-08-02T23:26:09.976Z,22.10
2022-08-02T23:31:51.494Z,21.90
2022-08-02T23:36:55.822Z,21.80
2022-08-02T23:41:58.918Z,21.70
2022-08-02T23:47:01.662Z,21.60
2022-08-02T23:52:04.733Z,21.50
2022-08-02T23:57:20.425Z,21.50
